Time;durP1;ratioP1;P1;durP2;ratioP2;P2;SDS_P1;SDS_P2;PMS_P1;PMS_P2;Temp;Humidity;BMP_temperature;BMP_pressure;BME280_temperature;BME280_humidity;BME280_pressure;Samples;Min_cycle;Max_cycle;Signal;HPM_P1;HPM_P2
2023/05/12 00:00:58;;;;;;;8.77;4.97;;;12.20;99.90;;;;;;5075540;28;20369;-78
2023/05/12 00:03:24;;;;;;;9.38;5.05;;;12.20;99.90;;;;;;5075347;28;20156;-78
2023/05/12 00:05:50;;;;;;;13.45;5.65;;;12.10;99.90;;;;;;5092949;28;20028;-77
2023/05/12 00:08:16;;;;;;;9.60;5.40;;;12.10;99.90;;;;;;5075246;28;20362;-77
2023/05/12 00:10:42;;;;;;;11.30;6.13;;;12.10;99.90;;;;;;5075314;28;20035;-77
2023/05/12 00:13:08;;;;;;;33.63;11.32;;;12.10;99.90;;;;;;5093114;28;20078;-78
2023/05/12 00:15:36;;;;;;;13.82;6.50;;;12.10;99.90;;;;;;5075311;28;20023;-77
2023/05/12 00:18:01;;;;;;;10.80;5.10;;;12.10;99.90;;;;;;5074759;28;20028;-77
2023/05/12 00:20:27;;;;;;;13.98;5.47;;;12.10;99.90;;;;;;5092996;28;20077;-77
2023/05/12 00:22:53;;;;;;;7.38;4.57;;;12.20;99.90;;;;;;5093385;28;20024;-77
2023/05/12 00:25:19;;;;;;;8.30;4.05;;;12.10;99.90;;;;;;5074872;28;20028;-77
2023/05/12 00:27:44;;;;;;;6.53;4.70;;;12.10;99.90;;;;;;5095785;28;20035;-77
2023/05/12 00:30:11;;;;;;;10.05;5.25;;;12.10;99.90;;;;;;5078797;28;20024;-78
2023/05/12 00:32:36;;;;;;;8.35;4.38;;;12.10;99.90;;;;;;5096570;28;20012;-77
2023/05/12 00:35:02;;;;;;;7.80;4.70;;;12.10;99.90;;;;;;5097403;28;20016;-77
2023/05/12 00:37:28;;;;;;;6.38;4.80;;;12.20;99.90;;;;;;5096835;28;20020;-77
2023/05/12 00:39:54;;;;;;;14.07;4.78;;;12.10;99.90;;;;;;5096068;28;20347;-78
2023/05/12 00:42:20;;;;;;;7.90;4.95;;;12.20;99.90;;;;;;5097067;28;20085;-78
2023/05/12 00:44:46;;;;;;;9.15;5.60;;;12.20;99.90;;;;;;5078494;28;20055;-78
2023/05/12 00:47:13;;;;;;;4.47;3.95;;;12.20;99.90;;;;;;5078045;28;20024;-78
2023/05/12 00:49:42;;;;;;;5.22;4.05;;;12.20;99.90;;;;;;5096630;28;20486;-78
2023/05/12 00:52:08;;;;;;;9.15;4.50;;;12.20;99.90;;;;;;5096816;28;20024;-78
2023/05/12 00:54:35;;;;;;;7.57;4.80;;;12.20;99.90;;;;;;5096461;28;20108;-78
2023/05/12 00:57:01;;;;;;;6.53;5.07;;;12.20;99.90;;;;;;5096865;28;20020;-78
2023/05/12 00:59:28;;;;;;;8.48;4.80;;;12.20;99.90;;;;;;5061864;28;20036;-79
2023/05/12 01:01:54;;;;;;;5.78;4.20;;;12.20;99.90;;;;;;5077923;28;20372;-79
2023/05/12 01:04:21;;;;;;;10.02;4.82;;;12.20;99.90;;;;;;5078118;28;20028;-79
2023/05/12 01:07:04;;;;;;;8.55;4.75;;;12.10;99.90;;;;;;5077705;28;20024;-78
2023/05/12 01:09:30;;;;;;;5.43;3.83;;;12.10;99.90;;;;;;5095991;28;20410;-78
2023/05/12 01:11:55;;;;;;;6.05;4.18;;;12.10;99.90;;;;;;5078211;28;20028;-78
2023/05/12 01:14:21;;;;;;;9.25;5.35;;;12.20;99.90;;;;;;5095916;28;20028;-78
2023/05/12 01:17:00;;;;;;;5.18;3.65;;;12.10;99.90;;;;;;5077937;28;20113;-78
2023/05/12 01:19:35;;;;;;;7.97;4.60;;;12.10;99.90;;;;;;5077695;28;20054;-78
2023/05/12 01:22:01;;;;;;;10.32;4.72;;;12.10;99.90;;;;;;5077530;28;20532;-78
2023/05/12 01:24:29;;;;;;;10.00;4.55;;;12.10;99.90;;;;;;5077712;28;20029;-78
2023/05/12 01:26:55;;;;;;;6.65;4.90;;;12.10;99.90;;;;;;5095790;28;20099;-77
2023/05/12 01:29:22;;;;;;;6.80;4.35;;;12.10;99.90;;;;;;5095143;28;20111;-78
2023/05/12 01:31:48;;;;;;;8.05;5.10;;;12.10;99.90;;;;;;5095841;28;20031;-78
2023/05/12 01:34:19;;;;;;;10.25;4.70;;;12.10;99.90;;;;;;5095772;28;20016;-78
2023/05/12 01:36:45;;;;;;;8.07;4.78;;;12.10;99.90;;;;;;5077327;28;20070;-78
2023/05/12 01:39:11;;;;;;;6.70;4.75;;;12.10;99.90;;;;;;5095378;28;20064;-78
2023/05/12 01:41:37;;;;;;;10.75;4.93;;;12.10;99.90;;;;;;5077108;28;20028;-78
2023/05/12 01:44:03;;;;;;;7.90;4.38;;;12.10;99.90;;;;;;5095521;28;20058;-78
2023/05/12 01:46:29;;;;;;;6.47;4.40;;;12.10;99.90;;;;;;5095054;28;20020;-78
2023/05/12 01:48:55;;;;;;;7.20;4.50;;;12.10;99.90;;;;;;5094872;28;20036;-78
2023/05/12 01:51:21;;;;;;;8.18;3.72;;;12.10;99.90;;;;;;5095099;28;20024;-78
2023/05/12 01:53:46;;;;;;;7.80;4.55;;;12.10;99.90;;;;;;5095424;28;20061;-78
2023/05/12 01:56:12;;;;;;;6.68;4.32;;;12.10;99.90;;;;;;5076908;28;20116;-78
2023/05/12 01:58:38;;;;;;;9.32;5.97;;;12.10;99.90;;;;;;5077041;28;20028;-78
2023/05/12 02:01:04;;;;;;;8.40;4.57;;;12.10;99.90;;;;;;5077263;28;20166;-78
2023/05/12 02:03:30;;;;;;;8.00;5.18;;;12.10;99.90;;;;;;5083911;28;20111;-78
2023/05/12 02:05:55;;;;;;;10.75;5.72;;;12.10;99.90;;;;;;5082497;28;20031;-78
2023/05/12 02:08:21;;;;;;;12.75;6.60;;;12.10;99.90;;;;;;5094673;28;20032;-78
2023/05/12 02:10:47;;;;;;;16.02;7.88;;;12.10;99.90;;;;;;5094830;28;20020;-78
2023/05/12 02:13:13;;;;;;;11.45;6.40;;;12.10;99.90;;;;;;5076837;28;20455;-78
2023/05/12 02:15:38;;;;;;;16.55;8.13;;;12.10;99.90;;;;;;5094953;28;20024;-78
2023/05/12 02:18:04;;;;;;;19.20;9.35;;;12.10;99.90;;;;;;5094045;28;20106;-78
2023/05/12 02:20:30;;;;;;;16.95;8.02;;;12.10;99.90;;;;;;5076690;28;20177;-78
2023/05/12 02:22:56;;;;;;;23.52;8.73;;;12.10;99.90;;;;;;5095090;28;20469;-78
2023/05/12 02:25:21;;;;;;;19.50;7.18;;;12.10;99.90;;;;;;5076564;28;20016;-78
2023/05/12 02:27:47;;;;;;;9.02;5.35;;;12.10;99.90;;;;;;5076585;28;20443;-78
2023/05/12 02:30:14;;;;;;;9.20;5.32;;;12.10;99.90;;;;;;5094945;28;20408;-78
2023/05/12 02:32:40;;;;;;;8.48;4.70;;;12.20;99.90;;;;;;5076247;28;20362;-78
2023/05/12 02:35:07;;;;;;;11.98;5.00;;;12.10;99.90;;;;;;5094835;28;20103;-78
2023/05/12 02:37:32;;;;;;;6.95;4.32;;;12.10;99.90;;;;;;5094823;28;20085;-78
2023/05/12 02:39:58;;;;;;;5.50;3.97;;;12.10;99.90;;;;;;5093844;28;20428;-78
2023/05/12 02:42:27;;;;;;;6.47;4.55;;;12.10;99.90;;;;;;5094777;28;20469;-78
2023/05/12 02:44:53;;;;;;;8.60;4.68;;;12.20;99.90;;;;;;5075992;28;20106;-78
2023/05/12 02:47:19;;;;;;;6.18;4.43;;;12.20;99.90;;;;;;5094264;28;20423;-78
2023/05/12 02:49:44;;;;;;;8.88;4.57;;;12.20;99.90;;;;;;5093867;28;20160;-78
2023/05/12 02:52:10;;;;;;;9.65;5.57;;;12.10;99.90;;;;;;5094180;28;20381;-78
2023/05/12 02:54:36;;;;;;;7.40;5.25;;;12.10;99.90;;;;;;5094295;28;20389;-78
2023/05/12 02:57:05;;;;;;;7.65;5.35;;;12.20;99.90;;;;;;5084832;28;20021;-77
2023/05/12 02:59:31;;;;;;;6.68;4.72;;;12.20;99.90;;;;;;5090307;28;20117;-78
2023/05/12 03:01:57;;;;;;;10.13;5.95;;;12.10;99.90;;;;;;5093899;28;20378;-78
2023/05/12 03:04:23;;;;;;;7.88;5.13;;;12.10;99.90;;;;;;5103889;28;20029;-78
2023/05/12 03:06:48;;;;;;;10.13;5.18;;;12.10;99.90;;;;;;5075380;28;20447;-78
2023/05/12 03:09:15;;;;;;;7.60;4.47;;;12.10;99.90;;;;;;5093845;28;20028;-78
2023/05/12 03:11:41;;;;;;;7.43;5.05;;;12.20;99.90;;;;;;5094280;28;20113;-78
2023/05/12 03:14:06;;;;;;;7.57;4.78;;;12.20;99.90;;;;;;5093088;28;20186;-78
2023/05/12 03:16:32;;;;;;;10.30;5.72;;;12.20;99.90;;;;;;5094081;28;20028;-78
2023/05/12 03:18:58;;;;;;;9.18;5.55;;;12.20;99.90;;;;;;5093808;28;20036;-78
2023/05/12 03:21:24;;;;;;;13.00;5.80;;;12.30;99.90;;;;;;5093575;28;20032;-78
2023/05/12 03:23:51;;;;;;;7.93;5.07;;;12.30;99.90;;;;;;5093952;28;20036;-78
2023/05/12 03:26:17;;;;;;;7.95;4.88;;;12.30;99.90;;;;;;5075697;28;20027;-78
2023/05/12 03:28:43;;;;;;;7.65;5.68;;;12.30;99.90;;;;;;5093342;28;20021;-78
2023/05/12 03:31:09;;;;;;;9.48;5.50;;;12.30;99.90;;;;;;5075736;28;20134;-78
2023/05/12 03:33:34;;;;;;;7.57;4.57;;;12.30;99.90;;;;;;5093859;28;20031;-78
2023/05/12 03:36:00;;;;;;;7.35;4.47;;;12.30;99.90;;;;;;5075321;28;20024;-78
2023/05/12 03:38:26;;;;;;;6.30;4.32;;;12.30;99.90;;;;;;5075696;28;20510;-78
2023/05/12 03:41:05;;;;;;;6.25;4.50;;;12.30;99.90;;;;;;5093399;28;20535;-78
2023/05/12 03:43:31;;;;;;;4.78;4.07;;;12.30;99.90;;;;;;5075689;28;20048;-78
2023/05/12 03:45:57;;;;;;;5.93;4.20;;;12.40;99.90;;;;;;5075637;28;20068;-77
2023/05/12 03:48:23;;;;;;;9.10;5.65;;;12.40;99.90;;;;;;5075246;28;20020;-78
2023/05/12 03:50:49;;;;;;;8.75;4.68;;;12.30;99.90;;;;;;5075452;28;20418;-78
2023/05/12 03:53:15;;;;;;;6.75;4.28;;;12.40;99.90;;;;;;5093386;28;20024;-79
2023/05/12 03:55:41;;;;;;;6.63;4.68;;;12.40;99.90;;;;;;5093284;28;20024;-78
2023/05/12 03:58:07;;;;;;;9.90;4.82;;;12.50;99.90;;;;;;5075478;28;20107;-78
2023/05/12 04:00:33;;;;;;;10.77;4.93;;;12.50;99.90;;;;;;5075448;28;20143;-78
2023/05/12 04:02:59;;;;;;;6.68;4.32;;;12.50;99.90;;;;;;5096821;28;20710;-78
2023/05/12 04:05:25;;;;;;;7.82;4.65;;;12.50;99.90;;;;;;5079280;28;20408;-78
2023/05/12 04:07:51;;;;;;;7.63;5.22;;;12.50;99.90;;;;;;5097333;28;20024;-78
2023/05/12 04:10:17;;;;;;;9.80;5.68;;;12.50;99.90;;;;;;5079998;28;20024;-78
2023/05/12 04:12:42;;;;;;;8.02;4.65;;;12.60;99.90;;;;;;5090623;28;20077;-78
2023/05/12 04:15:08;;;;;;;8.30;5.40;;;12.60;99.90;;;;;;5079058;28;20111;-78
2023/05/12 04:17:34;;;;;;;7.90;5.22;;;12.60;99.90;;;;;;5096613;28;20378;-77
2023/05/12 04:20:00;;;;;;;9.90;5.90;;;12.60;99.90;;;;;;5078553;28;20048;-78
2023/05/12 04:22:26;;;;;;;9.10;5.15;;;12.60;99.90;;;;;;5097144;28;20400;-78
2023/05/12 04:24:51;;;;;;;9.52;4.85;;;12.60;99.90;;;;;;5078680;28;20023;-78
2023/05/12 04:27:17;;;;;;;6.75;4.65;;;12.60;99.90;;;;;;5097252;28;20027;-77
2023/05/12 04:29:43;;;;;;;7.95;4.25;;;12.60;99.90;;;;;;5078676;28;20124;-78
2023/05/12 04:32:09;;;;;;;8.20;4.25;;;12.60;99.90;;;;;;5096785;28;20028;-78
2023/05/12 04:34:35;;;;;;;5.75;4.07;;;12.70;99.90;;;;;;5078752;28;20054;-78
2023/05/12 04:37:00;;;;;;;5.95;4.10;;;12.70;99.90;;;;;;5078388;28;20028;-78
2023/05/12 04:39:27;;;;;;;6.55;4.65;;;12.70;99.90;;;;;;5096725;28;20035;-78
2023/05/12 04:41:53;;;;;;;8.85;4.93;;;12.70;99.90;;;;;;5096605;28;20454;-78
2023/05/12 04:44:18;;;;;;;11.25;5.45;;;12.70;99.90;;;;;;5078594;28;20052;-78
2023/05/12 04:46:44;;;;;;;11.13;4.95;;;12.70;99.90;;;;;;5096316;28;20028;-78
2023/05/12 04:49:10;;;;;;;11.00;5.35;;;12.70;99.90;;;;;;5078428;28;20039;-78
2023/05/12 04:51:41;;;;;;;10.02;4.75;;;12.80;99.90;;;;;;5096214;28;20027;-78
2023/05/12 04:54:10;;;;;;;9.25;4.10;;;12.80;99.90;;;;;;5096866;28;20020;-78
2023/05/12 04:56:36;;;;;;;9.32;4.68;;;12.80;99.90;;;;;;5096174;28;20378;-78
2023/05/12 04:59:02;;;;;;;7.53;4.63;;;12.80;99.90;;;;;;5096014;28;20036;-78
2023/05/12 05:01:28;;;;;;;9.30;5.25;;;12.80;99.90;;;;;;5078351;28;20026;-78
2023/05/12 05:03:54;;;;;;;10.50;4.28;;;12.80;99.90;;;;;;5096513;28;20028;-78
2023/05/12 05:06:20;;;;;;;7.40;4.95;;;12.90;99.90;;;;;;5095633;28;20027;-77
2023/05/12 05:08:46;;;;;;;9.40;4.28;;;12.90;99.90;;;;;;5096524;28;20028;-78
2023/05/12 05:11:11;;;;;;;8.02;5.03;;;13.00;99.90;;;;;;5096243;28;20085;-78
2023/05/12 05:13:37;;;;;;;14.35;5.10;;;12.90;99.90;;;;;;5095303;28;20107;-78
2023/05/12 05:16:03;;;;;;;7.63;5.20;;;13.00;99.90;;;;;;5073162;28;20025;-78
2023/05/12 05:18:29;;;;;;;5.40;4.28;;;13.00;99.90;;;;;;5077639;28;20051;-78
2023/05/12 05:20:55;;;;;;;9.82;5.43;;;13.00;99.90;;;;;;5077746;28;20039;-78
2023/05/12 05:23:21;;;;;;;7.07;4.45;;;13.10;99.90;;;;;;5095993;28;20023;-78
2023/05/12 05:25:46;;;;;;;8.35;4.82;;;13.10;99.90;;;;;;5077585;28;20024;-78
2023/05/12 05:28:12;;;;;;;6.30;4.18;;;13.10;99.90;;;;;;5095846;28;20368;-77
2023/05/12 05:30:38;;;;;;;7.82;5.28;;;13.10;99.90;;;;;;5095867;28;20028;-78
2023/05/12 05:33:04;;;;;;;8.88;5.15;;;13.10;99.90;;;;;;5077327;28;20144;-78
2023/05/12 05:35:30;;;;;;;7.80;5.07;;;13.20;99.90;;;;;;5095502;28;20024;-78
2023/05/12 05:37:56;;;;;;;8.90;4.93;;;13.20;99.90;;;;;;5095613;28;20077;-78
2023/05/12 05:40:22;;;;;;;8.50;5.78;;;13.20;99.90;;;;;;5095210;28;20036;-77
2023/05/12 05:42:47;;;;;;;9.65;5.47;;;13.20;99.90;;;;;;5076061;28;20050;-77
2023/05/12 05:45:13;;;;;;;9.57;6.03;;;13.20;99.90;;;;;;5095385;28;20016;-77
2023/05/12 05:47:48;;;;;;;8.50;5.15;;;13.20;99.90;;;;;;5094791;28;20048;-79
2023/05/12 05:50:15;;;;;;;7.97;5.05;;;13.10;99.90;;;;;;5077506;28;20024;-78
2023/05/12 05:52:41;;;;;;;6.32;5.22;;;13.10;99.90;;;;;;5095296;28;20031;-78
2023/05/12 05:55:07;;;;;;;12.20;6.28;;;13.10;99.90;;;;;;5077108;28;20026;-78
2023/05/12 05:57:33;;;;;;;9.27;5.95;;;13.10;99.90;;;;;;5072271;28;20367;-79
2023/05/12 05:59:59;;;;;;;8.73;5.50;;;13.10;99.90;;;;;;5075066;28;20040;-78
2023/05/12 06:02:24;;;;;;;7.65;4.80;;;13.10;99.90;;;;;;5092335;28;20028;-77
2023/05/12 06:04:51;;;;;;;8.13;5.85;;;13.10;99.90;;;;;;5077007;28;20024;-77
2023/05/12 06:07:17;;;;;;;7.20;5.32;;;13.10;99.90;;;;;;5094773;28;20020;-76
2023/05/12 06:09:42;;;;;;;8.57;4.88;;;13.00;99.90;;;;;;5094492;28;20028;-77
2023/05/12 06:12:08;;;;;;;10.30;6.00;;;12.90;99.90;;;;;;5095039;28;20440;-77
2023/05/12 06:14:34;;;;;;;9.57;5.57;;;12.90;99.90;;;;;;5076795;28;20030;-77
2023/05/12 06:17:00;;;;;;;9.10;6.03;;;12.90;99.90;;;;;;5076372;28;20458;-77
2023/05/12 06:19:25;;;;;;;7.43;5.50;;;12.80;99.90;;;;;;5094797;28;20109;-76
2023/05/12 06:21:52;;;;;;;9.52;5.57;;;12.80;99.90;;;;;;5075401;28;20126;-76
2023/05/12 06:24:17;;;;;;;10.77;5.75;;;12.80;99.90;;;;;;5093841;28;20023;-77
2023/05/12 06:26:43;;;;;;;7.72;5.28;;;12.80;99.90;;;;;;5076477;28;20362;-79
2023/05/12 06:29:09;;;;;;;7.78;5.75;;;12.80;99.90;;;;;;5076213;28;20433;-78
2023/05/12 06:31:35;;;;;;;8.25;5.68;;;12.80;99.90;;;;;;5076371;28;20074;-77
2023/05/12 06:34:01;;;;;;;10.77;6.30;;;12.80;99.90;;;;;;5076151;28;20018;-77
2023/05/12 06:36:28;;;;;;;19.40;9.77;;;12.80;99.90;;;;;;5076139;28;20516;-76
2023/05/12 06:38:54;;;;;;;22.38;11.43;;;12.80;99.90;;;;;;5095308;28;20098;-77
2023/05/12 06:41:20;;;;;;;18.25;8.40;;;12.80;99.90;;;;;;5076217;28;20474;-78
2023/05/12 06:43:46;;;;;;;25.70;10.02;;;12.80;99.90;;;;;;5093639;28;20084;-76
2023/05/12 06:46:13;;;;;;;19.70;9.90;;;12.90;99.90;;;;;;5094099;28;20396;-76
2023/05/12 06:48:39;;;;;;;11.50;6.40;;;12.90;99.90;;;;;;5075955;28;20138;-77
2023/05/12 06:51:05;;;;;;;10.02;5.60;;;12.90;99.90;;;;;;5075850;28;20107;-77
2023/05/12 06:53:32;;;;;;;8.35;5.75;;;12.90;99.90;;;;;;5094374;28;20024;-77
2023/05/12 06:55:58;;;;;;;10.35;6.22;;;12.90;99.90;;;;;;5093377;28;20099;-78
2023/05/12 06:58:24;;;;;;;10.88;6.55;;;12.90;99.90;;;;;;5093227;28;20157;-77
2023/05/12 07:00:50;;;;;;;10.13;6.22;;;12.90;99.90;;;;;;5061141;28;20036;-78
2023/05/12 07:03:16;;;;;;;9.20;6.07;;;12.90;99.90;;;;;;5066046;28;20096;-77
2023/05/12 07:05:41;;;;;;;9.85;6.07;;;12.90;99.90;;;;;;5093939;28;20104;-76
2023/05/12 07:08:07;;;;;;;8.93;6.82;;;13.00;99.90;;;;;;5093724;28;20032;-77
2023/05/12 07:10:34;;;;;;;8.20;5.50;;;13.10;99.90;;;;;;5076002;28;20407;-77
2023/05/12 07:12:59;;;;;;;7.78;5.85;;;13.10;99.90;;;;;;5093579;28;20361;-76
2023/05/12 07:15:25;;;;;;;12.10;6.70;;;13.10;99.90;;;;;;5075830;28;20031;-76
2023/05/12 07:17:51;;;;;;;10.05;6.55;;;13.10;99.90;;;;;;5093773;28;20020;-76
2023/05/12 07:20:17;;;;;;;8.07;6.32;;;13.00;99.90;;;;;;5075345;28;20047;-76
2023/05/12 07:22:43;;;;;;;10.20;6.75;;;13.00;99.90;;;;;;5075872;28;20024;-76
2023/05/12 07:25:09;;;;;;;11.77;7.13;;;12.90;99.90;;;;;;5075465;28;20024;-76
2023/05/12 07:27:35;;;;;;;10.50;7.07;;;12.90;99.90;;;;;;5075698;28;20069;-76
2023/05/12 07:30:00;;;;;;;10.15;6.03;;;12.90;99.90;;;;;;5094338;28;20028;-76
2023/05/12 07:32:27;;;;;;;13.50;6.88;;;13.00;99.90;;;;;;5075571;28;20062;-76
2023/05/12 07:34:53;;;;;;;7.18;5.35;;;13.00;99.90;;;;;;5075717;28;20028;-75
2023/05/12 07:37:19;;;;;;;9.50;6.35;;;13.00;99.90;;;;;;5097827;28;20020;-76
2023/05/12 07:39:45;;;;;;;12.25;6.30;;;13.10;99.90;;;;;;5097592;28;20046;-76
2023/05/12 07:42:11;;;;;;;15.18;7.93;;;13.00;99.90;;;;;;5097725;28;20506;-76
2023/05/12 07:44:36;;;;;;;11.80;7.28;;;13.10;99.90;;;;;;5097882;28;20024;-76
2023/05/12 07:47:02;;;;;;;14.75;7.50;;;13.10;99.90;;;;;;5097183;28;20055;-75
2023/05/12 07:49:28;;;;;;;16.92;8.75;;;13.10;99.90;;;;;;5097919;28;20031;-76
2023/05/12 07:51:54;;;;;;;10.10;6.72;;;13.20;99.90;;;;;;5097676;28;20103;-76
2023/05/12 07:54:20;;;;;;;10.05;5.97;;;13.20;99.90;;;;;;5097388;28;20031;-76
2023/05/12 07:56:45;;;;;;;10.32;6.38;;;13.20;99.90;;;;;;5097891;28;20028;-76
2023/05/12 07:59:13;;;;;;;12.93;7.22;;;13.20;99.90;;;;;;5097285;28;20028;-75
2023/05/12 08:01:39;;;;;;;11.48;6.80;;;13.30;99.90;;;;;;5097281;28;20024;-76
2023/05/12 08:04:05;;;;;;;11.25;6.10;;;13.40;99.90;;;;;;5097852;28;20028;-75
2023/05/12 08:06:32;;;;;;;11.55;6.38;;;13.40;99.90;;;;;;5095963;28;20039;-76
2023/05/12 08:08:58;;;;;;;9.30;5.82;;;13.50;99.90;;;;;;5058909;28;20052;-75
2023/05/12 08:11:25;;;;;;;10.65;5.95;;;13.50;99.90;;;;;;5077788;28;20024;-76
2023/05/12 08:13:51;;;;;;;11.48;7.20;;;13.50;99.90;;;;;;5097031;28;20023;-75
2023/05/12 08:16:17;;;;;;;10.15;6.60;;;13.50;99.90;;;;;;5097038;28;20024;-75
2023/05/12 08:18:43;;;;;;;17.05;9.57;;;13.60;99.90;;;;;;5096860;28;20044;-75
2023/05/12 08:21:09;;;;;;;17.40;9.27;;;13.70;99.90;;;;;;5078755;28;20027;-76
2023/05/12 08:23:38;;;;;;;20.00;9.80;;;13.70;99.90;;;;;;5096898;28;20040;-75
2023/05/12 08:26:04;;;;;;;24.42;13.27;;;13.80;99.90;;;;;;5079129;28;20028;-76
2023/05/12 08:28:30;;;;;;;14.50;6.50;;;13.90;99.90;;;;;;5096541;28;20043;-75
2023/05/12 08:30:57;;;;;;;9.85;6.88;;;14.00;99.90;;;;;;5097044;28;20455;-75
2023/05/12 08:33:23;;;;;;;8.43;5.65;;;14.00;99.90;;;;;;5096997;28;20024;-76
2023/05/12 08:35:49;;;;;;;11.77;6.45;;;14.00;99.90;;;;;;5096572;28;20024;-75
2023/05/12 08:38:15;;;;;;;10.52;7.30;;;14.00;99.90;;;;;;5096607;28;20020;-76
2023/05/12 08:41:04;;;;;;;10.52;6.53;;;14.10;99.90;;;;;;5078577;28;20035;-75
2023/05/12 08:43:51;;;;;;;13.48;8.02;;;14.10;99.90;;;;;;5096098;28;20115;-75
2023/05/12 08:46:17;;;;;;;14.30;7.70;;;14.10;99.90;;;;;;5096489;28;20028;-75
2023/05/12 08:48:46;;;;;;;9.93;6.60;;;14.00;99.90;;;;;;5095636;28;20031;-75
2023/05/12 08:51:13;;;;;;;12.88;7.38;;;14.00;99.90;;;;;;5096861;28;20095;-76
2023/05/12 08:53:40;;;;;;;11.18;6.95;;;13.80;99.90;;;;;;5096696;28;20016;-75
2023/05/12 08:56:09;;;;;;;18.90;6.63;;;13.80;99.90;;;;;;5094082;28;20031;-76
2023/05/12 08:58:35;;;;;;;15.15;6.90;;;13.90;99.90;;;;;;5084819;28;20473;-76
2023/05/12 09:01:06;;;;;;;15.82;8.73;;;13.80;99.90;;;;;;5096414;28;20023;-77
2023/05/12 09:03:33;;;;;;;17.08;8.00;;;13.80;99.90;;;;;;5077823;28;20035;-76
2023/05/12 09:05:59;;;;;;;13.15;7.95;;;13.90;99.90;;;;;;5078093;28;20020;-76
2023/05/12 09:08:27;;;;;;;12.63;7.68;;;14.00;99.90;;;;;;5078149;28;20369;-76
2023/05/12 09:10:57;;;;;;;26.13;8.80;;;14.10;99.90;;;;;;5095693;28;20063;-76
2023/05/12 09:13:39;;;;;;;10.68;7.00;;;14.20;99.90;;;;;;5096173;28;20020;-76
2023/05/12 09:16:10;;;;;;;13.05;7.32;;;14.20;99.90;;;;;;5078137;28;20024;-75
2023/05/12 09:18:53;;;;;;;11.00;6.70;;;14.20;99.90;;;;;;5095632;28;20467;-76
2023/05/12 09:21:19;;;;;;;13.32;7.60;;;14.20;99.90;;;;;;5096348;28;20067;-76
2023/05/12 09:24:11;;;;;;;10.48;6.32;;;14.20;99.90;;;;;;5077519;28;20024;-76
2023/05/12 09:26:45;;;;;;;;;;;14.10;99.90;;;;;;5093229;28;20038;-75
2023/05/12 09:29:11;;;;;;;17.60;8.05;;;14.10;99.90;;;;;;5095934;28;19904;-76
2023/05/12 09:31:37;;;;;;;14.70;7.80;;;14.20;99.90;;;;;;5077393;28;20028;-76
2023/05/12 09:34:12;;;;;;;12.95;6.97;;;14.10;99.90;;;;;;5095813;28;20024;-76
2023/05/12 09:36:37;;;;;;;10.63;7.32;;;14.10;99.90;;;;;;5095550;28;20028;-76
2023/05/12 09:39:05;;;;;;;11.75;7.13;;;14.00;99.90;;;;;;5077134;28;20024;-76
2023/05/12 09:41:35;;;;;;;10.73;5.95;;;14.20;99.90;;;;;;5077539;28;20078;-75
2023/05/12 09:44:01;;;;;;;9.35;4.75;;;14.20;99.90;;;;;;5075407;28;20030;-76
2023/05/12 09:46:27;;;;;;;5.45;4.75;;;14.30;99.90;;;;;;5076958;28;20028;-77
2023/05/12 09:48:56;;;;;;;7.22;5.05;;;14.50;99.90;;;;;;5095227;28;20455;-75
2023/05/12 09:51:22;;;;;;;11.85;6.70;;;15.00;99.90;;;;;;5095453;28;20031;-76
2023/05/12 09:53:48;;;;;;;9.00;5.82;;;15.40;99.90;;;;;;5095069;28;20023;-75
2023/05/12 09:56:15;;;;;;;12.45;5.65;;;15.80;99.90;;;;;;5095422;28;20031;-76
2023/05/12 09:58:44;;;;;;;7.03;4.80;;;15.90;99.90;;;;;;5073877;28;20024;-77
2023/05/12 10:01:13;;;;;;;19.95;9.55;;;16.10;99.90;;;;;;5057021;28;20035;-76
2023/05/12 10:03:41;;;;;;;13.48;7.00;;;16.30;99.90;;;;;;5075339;28;20029;-77
2023/05/12 10:06:11;;;;;;;4.38;3.33;;;16.20;99.90;;;;;;5092285;28;20050;-76
2023/05/12 10:08:43;;;;;;;7.78;5.28;;;15.90;99.90;;;;;;5077018;28;20055;-75
2023/05/12 10:11:10;;;;;;;10.95;5.75;;;15.90;99.90;;;;;;5094883;28;20047;-77
2023/05/12 10:13:38;;;;;;;7.82;5.30;;;16.20;99.90;;;;;;5094648;28;20020;-76
2023/05/12 10:16:04;;;;;;;9.88;6.55;;;16.50;99.90;;;;;;5076754;28;20024;-76
2023/05/12 10:18:32;;;;;;;10.45;6.68;;;16.80;99.90;;;;;;5076514;28;20048;-77
2023/05/12 10:20:59;;;;;;;10.02;6.13;;;16.90;99.90;;;;;;5094717;28;20032;-77
2023/05/12 10:24:46;;;;;;;7.38;4.97;;;17.10;99.90;;;;;;5163797;27;20107;-76
2023/05/12 10:27:14;;;;;;;6.03;5.22;;;17.20;99.90;;;;;;5152243;27;20027;-77
2023/05/12 10:29:40;;;;;;;8.75;5.90;;;17.40;99.90;;;;;;5152854;27;20033;-77
2023/05/12 10:32:07;;;;;;;7.45;5.97;;;;;;;;;;5152850;27;20052;-76
2023/05/12 10:34:35;;;;;;;9.02;5.65;;;17.90;99.90;;;;;;5152502;27;20027;-78
2023/05/12 10:37:07;;;;;;;6.25;4.60;;;18.10;99.90;;;;;;5134243;27;20376;-76
2023/05/12 10:39:33;;;;;;;6.95;5.03;;;17.80;99.90;;;;;;5152748;27;20449;-78
2023/05/12 10:42:07;;;;;;;5.40;4.90;;;17.40;99.90;;;;;;5152365;27;20030;-77
2023/05/12 10:44:34;;;;;;;6.28;4.97;;;17.00;99.90;;;;;;5152197;27;20415;-78
2023/05/12 10:47:00;;;;;;;5.97;5.40;;;16.70;99.90;;;;;;5152706;27;20075;-78
2023/05/12 10:49:36;;;;;;;5.90;4.95;;;16.70;99.90;;;;;;5152105;27;20106;-77
2023/05/12 10:52:02;;;;;;;8.48;6.10;;;16.60;99.90;;;;;;5133931;27;20078;-78
2023/05/12 10:56:04;;;;;;;5.63;4.90;;;16.60;99.90;;;;;;5090978;27;20439;-80
2023/05/12 10:58:30;;;;;;;6.10;4.82;;;16.60;99.90;;;;;;5091444;28;20047;-78
2023/05/12 11:01:06;;;;;;;6.95;5.25;;;16.50;99.90;;;;;;5091056;28;20032;-80
2023/05/12 11:03:33;;;;;;;4.95;4.45;;;16.60;99.90;;;;;;5089644;28;20040;-79
2023/05/12 11:06:03;;;;;;;8.55;5.28;;;16.80;99.90;;;;;;5091165;28;20027;-79
2023/05/12 11:08:30;;;;;;;7.68;5.25;;;16.60;99.90;;;;;;5091197;28;20016;-79
2023/05/12 11:10:57;;;;;;;8.15;4.50;;;16.60;99.90;;;;;;5089607;28;20075;-79
2023/05/12 11:13:23;;;;;;;10.55;6.50;;;16.60;99.90;;;;;;5091128;28;20104;-80
2023/05/12 11:15:49;;;;;;;6.63;5.25;;;16.70;99.90;;;;;;5090578;28;20032;-80
2023/05/12 11:18:22;;;;;;;9.55;4.65;;;16.70;99.90;;;;;;5091010;28;20103;-80
2023/05/12 11:20:49;;;;;;;8.85;5.55;;;16.60;99.90;;;;;;5090910;28;20028;-79
2023/05/12 11:23:27;;;;;;;10.32;5.05;;;16.60;99.90;;;;;;5090542;28;20098;-80
2023/05/12 11:25:53;;;;;;;12.10;6.55;;;16.60;99.90;;;;;;5090377;28;20093;-80
2023/05/12 11:28:19;;;;;;;7.55;5.63;;;16.60;99.90;;;;;;5090638;28;20358;-80
2023/05/12 11:30:52;;;;;;;8.90;5.88;;;16.70;99.90;;;;;;5090134;28;20024;-81
2023/05/12 11:33:21;;;;;;;8.85;5.45;;;16.60;99.90;;;;;;5090792;28;20379;-79
2023/05/12 11:35:47;;;;;;;9.07;5.72;;;16.50;99.90;;;;;;5090264;28;20028;-80
2023/05/12 11:38:15;;;;;;;6.13;5.47;;;16.60;99.90;;;;;;5088961;28;20032;-79
2023/05/12 11:40:41;;;;;;;7.78;5.38;;;16.60;99.90;;;;;;5090495;28;20111;-79
2023/05/12 11:43:11;;;;;;;9.32;5.50;;;16.50;99.90;;;;;;5090176;28;20107;-80
2023/05/12 11:45:37;;;;;;;6.25;5.65;;;16.50;99.90;;;;;;5090022;28;20032;-79
2023/05/12 11:48:12;;;;;;;8.43;4.97;;;16.60;99.90;;;;;;5090040;28;20027;-79
2023/05/12 11:50:45;;;;;;;7.85;5.50;;;16.50;99.90;;;;;;5090625;28;20035;-79
2023/05/12 11:53:13;;;;;;;7.95;5.53;;;16.50;99.90;;;;;;5089197;28;20020;-80
2023/05/12 11:55:53;;;;;;;7.63;5.75;;;16.50;99.90;;;;;;5087902;28;20068;-79
2023/05/12 11:58:22;;;;;;;11.18;5.47;;;16.40;99.90;;;;;;5087368;28;20016;-79
2023/05/12 12:00:48;;;;;;;11.35;6.32;;;16.30;99.90;;;;;;5088783;28;20031;-79
2023/05/12 12:03:15;;;;;;;8.55;5.57;;;16.20;99.90;;;;;;5089755;28;20025;-79
2023/05/12 12:05:43;;;;;;;5.70;5.15;;;16.20;99.90;;;;;;5084172;28;20036;-80
2023/05/12 12:08:15;;;;;;;10.23;5.30;;;16.10;99.90;;;;;;5075168;28;20081;-80
2023/05/12 12:10:45;;;;;;;11.10;5.63;;;16.10;99.90;;;;;;5076380;28;20060;-81
2023/05/12 12:13:12;;;;;;;7.65;5.13;;;16.00;99.90;;;;;;5076079;28;20012;-79
2023/05/12 12:15:38;;;;;;;8.10;5.07;;;16.00;99.90;;;;;;5076016;28;20032;-80
2023/05/12 12:18:04;;;;;;;7.85;5.60;;;16.00;99.90;;;;;;5076546;28;20074;-80
2023/05/12 12:20:30;;;;;;;6.95;5.32;;;16.10;99.90;;;;;;5075951;28;20028;-79
2023/05/12 12:22:55;;;;;;;7.80;5.50;;;16.10;99.90;;;;;;5076218;28;20027;-81
2023/05/12 12:25:22;;;;;;;5.10;4.57;;;16.10;99.90;;;;;;5074904;28;20024;-80
2023/05/12 12:27:48;;;;;;;9.05;5.78;;;16.20;99.90;;;;;;5075701;28;20060;-80
2023/05/12 12:30:15;;;;;;;6.15;4.72;;;16.20;99.90;;;;;;5074745;28;20115;-79
2023/05/12 12:32:42;;;;;;;6.15;4.43;;;16.20;99.90;;;;;;5074551;28;20059;-79
2023/05/12 12:35:08;;;;;;;5.95;4.38;;;16.10;99.90;;;;;;5076041;28;20032;-79
2023/05/12 12:37:34;;;;;;;7.32;5.40;;;16.20;99.90;;;;;;5074730;28;20028;-80
2023/05/12 12:40:06;;;;;;;7.32;4.20;;;16.20;99.90;;;;;;5075858;28;20028;-81
2023/05/12 12:42:34;;;;;;;6.45;4.88;;;16.20;99.90;;;;;;5074663;28;20468;-80
2023/05/12 12:45:00;;;;;;;4.95;4.43;;;16.20;99.90;;;;;;5076086;28;20032;-80